Terminal Aerodrome Forecast
Issued by NWS

Current Version | Previous Version | Text Only | Print | Product List | Glossary On
Versions: 1 2 3 4 5 6 7 8 9 10 11 12
000
FTUS42 TJSJ 030536
TAFJPS
TAF
TJPS 030536Z 0306/0406 VRB04KT P6SM FEW030
     FM031350 14012KT P6SM FEW030
     FM032250 VRB04KT P6SM SKC
      AMD NOT SKED 0312/0403=

USA.gov is the U.S. government's official web portal to all federal, state and local government web resources and services.